Time;durP1;ratioP1;P1;durP2;ratioP2;P2;SDS_P1;SDS_P2;PMS_P1;PMS_P2;Temp;Humidity;BMP_temperature;BMP_pressure;BME280_temperature;BME280_humidity;BME280_pressure;Samples;Min_cycle;Max_cycle;Signal;HPM_P1;HPM_P2
2023/04/17 00:00:15;;;;;;;31.60;18.00;;;;;;;-128.00;-1.00;-1.00;18454;296;7504671;-33
2023/04/17 00:02:43;;;;;;;28.80;16.20;;;;;;;-128.00;-1.00;-1.00;18477;284;7506221;-34
2023/04/17 00:05:09;;;;;;;30.80;18.10;;;;;;;-128.00;-1.00;-1.00;18460;337;7504354;-30
2023/04/17 00:07:37;;;;;;;36.20;16.40;;;;;;;-128.00;-1.00;-1.00;18470;296;7505048;-33
2023/04/17 00:10:07;;;;;;;31.20;15.50;;;;;;;-128.00;-1.00;-1.00;18444;298;7507003;-30
2023/04/17 00:12:33;;;;;;;37.30;14.10;;;;;;;-128.00;-1.00;-1.00;18470;298;7504832;-30
2023/04/17 00:14:59;;;;;;;32.20;16.80;;;;;;;-128.00;-1.00;-1.00;18473;284;7506023;-33
2023/04/17 00:17:25;;;;;;;45.60;17.70;;;;;;;-128.00;-1.00;-1.00;18445;288;7505214;-30
2023/04/17 00:19:51;;;;;;;38.20;18.20;;;;;;;-128.00;-1.00;-1.00;18464;284;7504803;-35
2023/04/17 00:22:16;;;;;;;37.40;17.70;;;;;;;-128.00;-1.00;-1.00;18466;348;7504879;-31
2023/04/17 00:24:43;;;;;;;28.20;16.50;;;;;;;-128.00;-1.00;-1.00;18875;288;7505246;-30
2023/04/17 00:27:09;;;;;;;30.20;15.80;;;;;;;-128.00;-1.00;-1.00;18879;296;7505054;-34
2023/04/17 00:29:36;;;;;;;33.60;16.50;;;;;;;-128.00;-1.00;-1.00;18869;341;7505251;-30
2023/04/17 00:32:02;;;;;;;29.80;16.60;;;;;;;-128.00;-1.00;-1.00;18467;288;7506109;-33
2023/04/17 00:34:28;;;;;;;43.80;19.80;;;;;;;-128.00;-1.00;-1.00;18450;337;7503988;-30
2023/04/17 00:36:54;;;;;;;39.00;17.70;;;;;;;-128.00;-1.00;-1.00;18480;349;7505762;-30
2023/04/17 00:39:20;;;;;;;32.90;17.90;;;;;;;-128.00;-1.00;-1.00;18497;284;7504172;-33
2023/04/17 00:41:45;;;;;;;36.00;18.70;;;;;;;-128.00;-1.00;-1.00;18489;296;7506216;-34
2023/04/17 00:44:11;;;;;;;37.00;18.50;;;;;;;-128.00;-1.00;-1.00;18851;310;7505068;-34
2023/04/17 00:46:38;;;;;;;34.60;18.90;;;;;;;-128.00;-1.00;-1.00;18846;296;7504737;-33
2023/04/17 00:49:04;;;;;;;45.40;20.00;;;;;;;-128.00;-1.00;-1.00;18883;298;7504459;-33
2023/04/17 00:51:30;;;;;;;35.80;19.50;;;;;;;-128.00;-1.00;-1.00;18867;288;7504921;-30
2023/04/17 00:53:56;;;;;;;53.40;22.50;;;;;;;-128.00;-1.00;-1.00;18894;284;7504677;-34
2023/04/17 00:56:23;;;;;;;43.50;18.90;;;;;;;-128.00;-1.00;-1.00;18881;298;7504640;-29
2023/04/17 00:58:49;;;;;;;39.00;21.60;;;;;;;-128.00;-1.00;-1.00;18860;296;7505275;-33
2023/04/17 01:01:16;;;;;;;31.00;18.20;;;;;;;-128.00;-1.00;-1.00;18884;288;7504826;-33
2023/04/17 01:03:43;;;;;;;38.00;17.00;;;;;;;-128.00;-1.00;-1.00;18476;296;7504906;-29
2023/04/17 01:06:08;;;;;;;37.80;16.80;;;;;;;-128.00;-1.00;-1.00;18473;288;7506179;-30
2023/04/17 01:08:41;;;;;;;27.00;15.00;;;;;;;-128.00;-1.00;-1.00;18453;296;7504640;-33
2023/04/17 01:11:08;;;;;;;32.30;18.30;;;;;;;-128.00;-1.00;-1.00;18462;296;7505925;-29
2023/04/17 01:13:33;;;;;;;32.40;18.30;;;;;;;-128.00;-1.00;-1.00;18466;284;7506108;-30
2023/04/17 01:15:59;;;;;;;33.50;16.40;;;;;;;-128.00;-1.00;-1.00;18460;296;7505792;-33
2023/04/17 01:18:25;;;;;;;34.10;17.40;;;;;;;-128.00;-1.00;-1.00;18465;296;7504832;-33
2023/04/17 01:20:51;;;;;;;38.70;17.50;;;;;;;-128.00;-1.00;-1.00;18442;299;7505052;-30
2023/04/17 01:23:17;;;;;;;35.90;18.60;;;;;;;-128.00;-1.00;-1.00;18881;288;7504443;-36
2023/04/17 01:25:43;;;;;;;42.90;19.40;;;;;;;-128.00;-1.00;-1.00;18862;331;7504458;-34
2023/04/17 01:28:09;;;;;;;41.20;18.00;;;;;;;-128.00;-1.00;-1.00;18882;308;7504569;-33
2023/04/17 01:30:35;;;;;;;39.50;19.80;;;;;;;-128.00;-1.00;-1.00;18883;320;7504802;-34
2023/04/17 01:33:02;;;;;;;40.00;19.40;;;;;;;-128.00;-1.00;-1.00;18876;348;7504389;-30
2023/04/17 01:35:28;;;;;;;39.80;19.40;;;;;;;-128.00;-1.00;-1.00;18899;296;7505050;-33
2023/04/17 01:37:54;;;;;;;35.70;18.50;;;;;;;-128.00;-1.00;-1.00;18857;296;7505076;-31
2023/04/17 01:40:20;;;;;;;38.20;20.00;;;;;;;-128.00;-1.00;-1.00;18881;288;7504370;-30
2023/04/17 01:42:47;;;;;;;36.70;20.30;;;;;;;-128.00;-1.00;-1.00;18893;296;7505297;-34
2023/04/17 01:45:13;;;;;;;38.10;19.10;;;;;;;-128.00;-1.00;-1.00;18893;284;7504626;-33
2023/04/17 01:47:39;;;;;;;35.20;19.10;;;;;;;-128.00;-1.00;-1.00;18880;285;7505093;-30
2023/04/17 01:50:07;;;;;;;38.20;21.50;;;;;;;-128.00;-1.00;-1.00;18870;296;7504784;-33
2023/04/17 01:52:35;;;;;;;29.80;15.60;;;;;;;-128.00;-1.00;-1.00;18464;341;7504720;-33
2023/04/17 01:55:02;;;;;;;31.70;17.40;;;;;;;-128.00;-1.00;-1.00;18470;297;7505954;-34
2023/04/17 01:57:28;;;;;;;30.70;16.00;;;;;;;-128.00;-1.00;-1.00;18473;296;7504345;-30
2023/04/17 01:59:54;;;;;;;31.90;16.30;;;;;;;-128.00;-1.00;-1.00;18470;305;7506710;-35
2023/04/17 02:02:20;;;;;;;27.50;15.90;;;;;;;-128.00;-1.00;-1.00;18471;296;7504251;-34
2023/04/17 02:04:46;;;;;;;29.40;14.10;;;;;;;-128.00;-1.00;-1.00;18460;348;7504350;-34
2023/04/17 02:07:12;;;;;;;38.80;19.80;;;;;;;-128.00;-1.00;-1.00;18852;297;7505128;-34
2023/04/17 02:09:39;;;;;;;36.50;19.70;;;;;;;-128.00;-1.00;-1.00;18863;300;7505180;-31
2023/04/17 02:12:05;;;;;;;37.20;18.90;;;;;;;-128.00;-1.00;-1.00;18851;341;7504842;-31
2023/04/17 02:14:31;;;;;;;35.30;19.20;;;;;;;-128.00;-1.00;-1.00;18876;288;7504898;-33
2023/04/17 02:16:58;;;;;;;39.10;20.10;;;;;;;-128.00;-1.00;-1.00;18856;296;7505323;-33
2023/04/17 02:19:24;;;;;;;33.60;17.00;;;;;;;-128.00;-1.00;-1.00;18486;288;7504533;-30
2023/04/17 02:21:50;;;;;;;32.60;16.00;;;;;;;-128.00;-1.00;-1.00;18487;296;7504318;-34
2023/04/17 02:24:15;;;;;;;30.80;14.70;;;;;;;-128.00;-1.00;-1.00;18466;296;7505417;-31
2023/04/17 02:26:41;;;;;;;38.00;19.10;;;;;;;-128.00;-1.00;-1.00;18881;288;7504752;-33
2023/04/17 02:29:08;;;;;;;35.20;19.90;;;;;;;-128.00;-1.00;-1.00;18872;296;7504509;-31
2023/04/17 02:31:34;;;;;;;37.60;19.20;;;;;;;-128.00;-1.00;-1.00;18874;297;7504468;-30
2023/04/17 02:34:00;;;;;;;34.90;19.00;;;;;;;-128.00;-1.00;-1.00;18851;288;7504396;-29
2023/04/17 02:36:26;;;;;;;31.50;17.90;;;;;;;-128.00;-1.00;-1.00;18872;288;7504723;-33
2023/04/17 02:38:53;;;;;;;28.10;15.90;;;;;;;-128.00;-1.00;-1.00;18458;288;7504490;-33
2023/04/17 02:41:19;;;;;;;29.00;16.70;;;;;;;-128.00;-1.00;-1.00;18859;296;7506073;-33
2023/04/17 02:43:45;;;;;;;33.90;17.00;;;;;;;-128.00;-1.00;-1.00;18876;288;7504990;-29
2023/04/17 02:46:11;;;;;;;29.70;16.40;;;;;;;-128.00;-1.00;-1.00;18862;296;7504904;-30
2023/04/17 02:48:38;;;;;;;40.50;19.80;;;;;;;-128.00;-1.00;-1.00;18494;288;7504887;-34
2023/04/17 02:51:04;;;;;;;36.40;20.10;;;;;;;-128.00;-1.00;-1.00;18879;297;7504153;-31
2023/04/17 02:53:30;;;;;;;43.20;21.20;;;;;;;-128.00;-1.00;-1.00;18899;284;7504374;-30
2023/04/17 02:55:56;;;;;;;38.20;18.70;;;;;;;-128.00;-1.00;-1.00;18885;300;7504317;-33
2023/04/17 02:58:23;;;;;;;43.90;20.20;;;;;;;-128.00;-1.00;-1.00;18886;307;7505112;-33
2023/04/17 03:00:49;;;;;;;37.60;19.30;;;;;;;-128.00;-1.00;-1.00;18875;288;7505010;-31
2023/04/17 03:03:15;;;;;;;31.60;17.00;;;;;;;-128.00;-1.00;-1.00;18500;296;7505015;-31
2023/04/17 03:05:42;;;;;;;40.80;19.00;;;;;;;-128.00;-1.00;-1.00;18528;288;7506280;-34
2023/04/17 03:08:07;;;;;;;28.30;14.70;;;;;;;-128.00;-1.00;-1.00;18485;288;7504403;-34
2023/04/17 03:10:33;;;;;;;28.30;15.50;;;;;;;-128.00;-1.00;-1.00;18476;320;7506051;-30
2023/04/17 03:12:59;;;;;;;35.20;16.80;;;;;;;-128.00;-1.00;-1.00;18483;284;7505119;-30
2023/04/17 03:15:25;;;;;;;30.00;16.70;;;;;;;-128.00;-1.00;-1.00;18477;284;7504491;-34
2023/04/17 03:17:51;;;;;;;37.40;18.10;;;;;;;-128.00;-1.00;-1.00;18456;288;7504777;-30
2023/04/17 03:20:17;;;;;;;34.70;19.40;;;;;;;-128.00;-1.00;-1.00;18467;308;7504690;-33
2023/04/17 03:22:42;;;;;;;45.80;21.80;;;;;;;-128.00;-1.00;-1.00;18481;300;7504747;-30
2023/04/17 03:25:09;;;;;;;34.20;19.10;;;;;;;-128.00;-1.00;-1.00;18460;285;7504301;-33
2023/04/17 03:27:34;;;;;;;37.40;18.30;;;;;;;-128.00;-1.00;-1.00;18496;296;7504923;-32
2023/04/17 03:30:01;;;;;;;36.80;18.00;;;;;;;-128.00;-1.00;-1.00;18850;344;7505440;-33
2023/04/17 03:32:27;;;;;;;30.50;15.90;;;;;;;-128.00;-1.00;-1.00;18488;296;7504575;-33
2023/04/17 03:34:52;;;;;;;38.60;19.70;;;;;;;-128.00;-1.00;-1.00;18462;284;7506032;-29
2023/04/17 03:37:18;;;;;;;40.00;20.50;;;;;;;-128.00;-1.00;-1.00;18455;284;7504893;-29
2023/04/17 03:39:44;;;;;;;37.40;18.00;;;;;;;-128.00;-1.00;-1.00;18884;288;7504361;-30
2023/04/17 03:42:13;;;;;;;38.80;19.90;;;;;;;-128.00;-1.00;-1.00;18880;288;7505021;-30
2023/04/17 03:44:39;;;;;;;39.10;18.70;;;;;;;-128.00;-1.00;-1.00;18459;332;7507104;-33
2023/04/17 03:47:04;;;;;;;36.90;21.30;;;;;;;-128.00;-1.00;-1.00;18481;284;7504505;-34
2023/04/17 03:49:30;;;;;;;38.50;20.00;;;;;;;-128.00;-1.00;-1.00;18883;341;7504191;-33
2023/04/17 03:51:57;;;;;;;42.60;21.70;;;;;;;-128.00;-1.00;-1.00;18903;290;7504522;-30
2023/04/17 03:54:23;;;;;;;47.10;23.00;;;;;;;-128.00;-1.00;-1.00;18880;312;7504499;-34
2023/04/17 03:56:49;;;;;;;42.60;19.30;;;;;;;-128.00;-1.00;-1.00;18482;284;7504114;-35
2023/04/17 03:59:15;;;;;;;49.60;24.20;;;;;;;-128.00;-1.00;-1.00;18855;298;7505129;-30
2023/04/17 04:01:41;;;;;;;49.40;23.70;;;;;;;-128.00;-1.00;-1.00;18864;296;7504251;-30
2023/04/17 04:04:08;;;;;;;53.50;25.30;;;;;;;-128.00;-1.00;-1.00;18872;296;7504183;-31
2023/04/17 04:06:34;;;;;;;53.70;23.40;;;;;;;-128.00;-1.00;-1.00;18877;285;7504167;-31
2023/04/17 04:09:00;;;;;;;46.90;24.40;;;;;;;-128.00;-1.00;-1.00;18851;298;7504848;-33
2023/04/17 04:11:26;;;;;;;50.10;22.80;;;;;;;-128.00;-1.00;-1.00;18872;288;7504676;-30
2023/04/17 04:13:53;;;;;;;41.40;21.90;;;;;;;-128.00;-1.00;-1.00;18867;296;7504096;-33
2023/04/17 04:16:18;;;;;;;36.50;19.40;;;;;;;-128.00;-1.00;-1.00;18475;296;7504326;-34
2023/04/17 04:18:44;;;;;;;49.30;22.20;;;;;;;-128.00;-1.00;-1.00;18485;296;7504645;-30
2023/04/17 04:21:11;;;;;;;41.70;22.60;;;;;;;-128.00;-1.00;-1.00;18482;337;7504883;-30
2023/04/17 04:23:39;;;;;;;57.00;19.50;;;;;;;-128.00;-1.00;-1.00;18459;288;7505017;-29
2023/04/17 04:26:04;;;;;;;40.30;20.30;;;;;;;-128.00;-1.00;-1.00;18465;284;7504427;-35
2023/04/17 04:28:30;;;;;;;34.20;18.30;;;;;;;-128.00;-1.00;-1.00;18466;296;7506001;-31
2023/04/17 04:30:57;;;;;;;40.40;17.40;;;;;;;-128.00;-1.00;-1.00;18463;296;7505336;-35
2023/04/17 04:33:23;;;;;;;38.10;20.20;;;;;;;-128.00;-1.00;-1.00;18489;296;7504514;-31
2023/04/17 05:14:58;;;;;;;46.80;23.10;;;;;;;-101.66;19.20;19943.73;19595;293;8046213;-32
2023/04/17 05:17:24;;;;;;;50.30;23.70;;;;;;;-128.00;-1.00;-1.00;18619;294;7504683;-31
2023/04/17 05:19:50;;;;;;;51.30;26.00;;;;;;;-128.00;-1.00;-1.00;18917;293;7504954;-34
2023/04/17 05:22:16;;;;;;;49.90;23.20;;;;;;;-128.00;-1.00;-1.00;18896;306;7505173;-30
2023/04/17 05:24:42;;;;;;;49.10;23.50;;;;;;;-128.00;-1.00;-1.00;18868;293;7505376;-34
2023/04/17 05:27:09;;;;;;;45.10;22.60;;;;;;;-128.00;-1.00;-1.00;18888;346;7504892;-29
2023/04/17 05:29:36;;;;;;;38.80;21.00;;;;;;;-128.00;-1.00;-1.00;18902;309;7504370;-30
2023/04/17 05:32:02;;;;;;;41.90;21.80;;;;;;;-128.00;-1.00;-1.00;18474;293;7504665;-35
2023/04/17 05:34:27;;;;;;;46.70;23.00;;;;;;;-128.00;-1.00;-1.00;18531;338;7506029;-31
2023/04/17 05:36:54;;;;;;;40.70;21.00;;;;;;;-128.00;-1.00;-1.00;18893;293;7504682;-33
2023/04/17 05:39:20;;;;;;;38.80;17.70;;;;;;;-128.00;-1.00;-1.00;18501;293;7504971;-31
2023/04/17 05:41:46;;;;;;;33.00;15.90;;;;;;;-128.00;-1.00;-1.00;18458;293;7504652;-33
2023/04/17 05:44:11;;;;;;;34.30;19.90;;;;;;;-128.00;-1.00;-1.00;18488;293;7504833;-30
2023/04/17 05:46:37;;;;;;;40.70;21.20;;;;;;;-128.00;-1.00;-1.00;18508;293;7506315;-30
2023/04/17 05:49:04;;;;;;;45.00;22.80;;;;;;;-128.00;-1.00;-1.00;18885;295;7504941;-33
2023/04/17 05:51:30;;;;;;;52.30;25.70;;;;;;;-128.00;-1.00;-1.00;18910;293;7504758;-31
2023/04/17 05:53:56;;;;;;;44.20;21.70;;;;;;;-128.00;-1.00;-1.00;18871;318;7504876;-30
2023/04/17 05:56:22;;;;;;;38.50;22.00;;;;;;;-128.00;-1.00;-1.00;18887;294;7504715;-32
2023/04/17 05:58:48;;;;;;;44.60;23.10;;;;;;;-128.00;-1.00;-1.00;18881;293;7504571;-30
2023/04/17 06:01:16;;;;;;;50.70;26.60;;;;;;;-128.00;-1.00;-1.00;18903;293;7504302;-30
2023/04/17 06:03:42;;;;;;;54.40;24.50;;;;;;;-128.00;-1.00;-1.00;18486;334;7505196;-30
2023/04/17 06:06:08;;;;;;;54.80;27.30;;;;;;;-128.00;-1.00;-1.00;18884;293;7504388;-30
2023/04/17 06:08:34;;;;;;;49.90;24.70;;;;;;;-128.00;-1.00;-1.00;18908;293;7505055;-31
2023/04/17 06:11:01;;;;;;;46.20;23.50;;;;;;;-128.00;-1.00;-1.00;18897;293;7504564;-34
2023/04/17 06:13:27;;;;;;;38.80;19.80;;;;;;;-128.00;-1.00;-1.00;18912;293;7504628;-31
2023/04/17 06:15:53;;;;;;;31.00;17.40;;;;;;;-128.00;-1.00;-1.00;18881;294;7504769;-30
2023/04/17 06:18:19;;;;;;;41.70;21.70;;;;;;;-128.00;-1.00;-1.00;18886;294;7505258;-34
2023/04/17 06:20:46;;;;;;;44.60;20.40;;;;;;;-128.00;-1.00;-1.00;18889;294;7504574;-34
2023/04/17 06:23:12;;;;;;;43.30;20.60;;;;;;;-128.00;-1.00;-1.00;18878;346;7504749;-34
2023/04/17 06:25:38;;;;;;;33.90;16.90;;;;;;;-128.00;-1.00;-1.00;18887;294;7505580;-30
2023/04/17 06:28:05;;;;;;;36.10;17.60;;;;;;;-128.00;-1.00;-1.00;18905;294;7504248;-33
2023/04/17 06:30:31;;;;;;;34.50;19.10;;;;;;;-128.00;-1.00;-1.00;18927;294;7505025;-30
2023/04/17 06:32:57;;;;;;;37.20;18.30;;;;;;;-128.00;-1.00;-1.00;18874;346;7505194;-34
2023/04/17 06:35:23;;;;;;;33.90;17.70;;;;;;;-128.00;-1.00;-1.00;18857;346;7505590;-32
2023/04/17 06:37:49;;;;;;;36.60;19.20;;;;;;;-128.00;-1.00;-1.00;18905;318;7504890;-34
2023/04/17 06:40:16;;;;;;;35.60;19.50;;;;;;;-128.00;-1.00;-1.00;18901;294;7504421;-33
2023/04/17 06:42:42;;;;;;;35.80;18.50;;;;;;;-128.00;-1.00;-1.00;18881;338;7505567;-34
2023/04/17 06:45:09;;;;;;;30.30;15.80;;;;;;;-128.00;-1.00;-1.00;18899;294;7505123;-30
2023/04/17 06:47:34;;;;;;;36.40;19.40;;;;;;;-128.00;-1.00;-1.00;18476;294;7506323;-31
2023/04/17 06:50:01;;;;;;;31.00;16.60;;;;;;;-128.00;-1.00;-1.00;18874;293;7505134;-34
2023/04/17 06:52:27;;;;;;;34.70;19.00;;;;;;;-128.00;-1.00;-1.00;18881;294;7504711;-30
2023/04/17 06:54:53;;;;;;;39.10;18.80;;;;;;;-128.00;-1.00;-1.00;18870;334;7505046;-35
2023/04/17 06:57:21;;;;;;;31.10;17.70;;;;;;;-128.00;-1.00;-1.00;18881;306;7504233;-34
2023/04/17 06:59:47;;;;;;;34.90;17.70;;;;;;;-128.00;-1.00;-1.00;18485;294;7505837;-31
2023/04/17 07:02:12;;;;;;;23.70;15.10;;;;;;;-128.00;-1.00;-1.00;18487;306;7504599;-34
2023/04/17 07:04:38;;;;;;;31.90;16.50;;;;;;;-128.00;-1.00;-1.00;18488;294;7506184;-34
2023/04/17 07:07:04;;;;;;;30.80;19.20;;;;;;;-128.00;-1.00;-1.00;18462;294;7507153;-36
2023/04/17 07:09:29;;;;;;;31.90;19.30;;;;;;;-128.00;-1.00;-1.00;18497;293;7504635;-30
2023/04/17 07:11:55;;;;;;;33.40;19.00;;;;;;;-128.00;-1.00;-1.00;18898;294;7505732;-31
2023/04/17 07:14:22;;;;;;;32.20;16.40;;;;;;;-128.00;-1.00;-1.00;18891;294;7505930;-35
2023/04/17 07:16:48;;;;;;;33.70;16.00;;;;;;;-128.00;-1.00;-1.00;18890;294;7504231;-32
2023/04/17 07:19:14;;;;;;;28.70;15.40;;;;;;;-128.00;-1.00;-1.00;18879;338;7504137;-32
2023/04/17 07:21:40;;;;;;;39.50;17.80;;;;;;;-128.00;-1.00;-1.00;18873;331;7506735;-31
2023/04/17 07:24:07;;;;;;;27.50;13.10;;;;;;;-128.00;-1.00;-1.00;18893;294;7504808;-30
2023/04/17 07:26:33;;;;;;;34.30;18.10;;;;;;;-128.00;-1.00;-1.00;18905;294;7504756;-31
2023/04/17 07:28:59;;;;;;;28.50;15.00;;;;;;;-128.00;-1.00;-1.00;18473;293;7504986;-33
2023/04/17 07:31:27;;;;;;;28.60;15.30;;;;;;;-128.00;-1.00;-1.00;18485;295;7504435;-35
2023/04/17 07:33:53;;;;;;;27.20;13.60;;;;;;;-128.00;-1.00;-1.00;18472;335;7504443;-34
2023/04/17 07:36:18;;;;;;;33.50;12.30;;;;;;;-128.00;-1.00;-1.00;18506;294;7504195;-34
2023/04/17 07:38:44;;;;;;;31.10;14.00;;;;;;;-128.00;-1.00;-1.00;18508;294;7505805;-30
2023/04/17 07:41:11;;;;;;;38.10;17.90;;;;;;;-128.00;-1.00;-1.00;18497;298;7505052;-30
2023/04/17 07:43:36;;;;;;;24.00;12.60;;;;;;;-128.00;-1.00;-1.00;18498;293;7507262;-34
2023/04/17 07:46:03;;;;;;;30.80;16.10;;;;;;;-128.00;-1.00;-1.00;18871;317;7504760;-30
2023/04/17 07:48:30;;;;;;;27.10;15.40;;;;;;;-128.00;-1.00;-1.00;18879;293;7504491;-30
2023/04/17 07:50:58;;;;;;;35.50;17.30;;;;;;;-128.00;-1.00;-1.00;18500;294;7506103;-35
2023/04/17 07:53:24;;;;;;;30.60;14.90;;;;;;;-128.00;-1.00;-1.00;18481;294;7505175;-31
2023/04/17 07:55:51;;;;;;;33.70;17.30;;;;;;;-128.00;-1.00;-1.00;18491;293;7505891;-30
2023/04/17 07:58:16;;;;;;;31.20;17.00;;;;;;;-128.00;-1.00;-1.00;18493;294;7504798;-34
2023/04/17 08:00:42;;;;;;;30.30;15.00;;;;;;;-128.00;-1.00;-1.00;18482;283;7507005;-35
2023/04/17 08:03:08;;;;;;;30.60;16.60;;;;;;;-128.00;-1.00;-1.00;18462;294;7506045;-31
2023/04/17 08:05:33;;;;;;;23.00;11.60;;;;;;;-128.00;-1.00;-1.00;18477;294;7504166;-34
2023/04/17 08:07:59;;;;;;;34.90;17.80;;;;;;;-128.00;-1.00;-1.00;18896;294;7504782;-30
2023/04/17 08:10:27;;;;;;;34.50;17.60;;;;;;;-128.00;-1.00;-1.00;18865;295;7505519;-32
2023/04/17 08:12:53;;;;;;;32.30;15.70;;;;;;;-128.00;-1.00;-1.00;18477;294;7505815;-35
2023/04/17 08:15:19;;;;;;;36.10;17.30;;;;;;;-128.00;-1.00;-1.00;18462;338;7504840;-31
2023/04/17 08:17:46;;;;;;;32.60;15.20;;;;;;;-128.00;-1.00;-1.00;18489;346;7504498;-34
2023/04/17 08:20:12;;;;;;;34.70;16.80;;;;;;;-128.00;-1.00;-1.00;18478;294;7505160;-31
2023/04/17 08:22:41;;;;;;;34.20;17.00;;;;;;;-128.00;-1.00;-1.00;18479;294;7504473;-30
2023/04/17 08:25:08;;;;;;;39.40;20.00;;;;;;;-128.00;-1.00;-1.00;18481;317;7505095;-34
2023/04/17 08:27:39;;;;;;;26.30;15.00;;;;;;;-128.00;-1.00;-1.00;18494;293;7506059;-31
2023/04/17 08:30:05;;;;;;;24.00;10.30;;;;;;;-128.00;-1.00;-1.00;18465;294;7505346;-34
2023/04/17 08:32:39;;;;;;;31.80;16.70;;;;;;;-128.00;-1.00;-1.00;18481;294;7506392;-30
2023/04/17 08:35:06;;;;;;;28.10;14.40;;;;;;;-128.00;-1.00;-1.00;18474;293;7504446;-29
2023/04/17 08:37:59;;;;;;;28.90;15.60;;;;;;;-128.00;-1.00;-1.00;18509;298;7504194;-34
2023/04/17 08:43:26;;;;;;;27.40;14.50;;;;;;;-128.00;-1.00;-1.00;18486;293;7505946;-34
2023/04/17 08:45:52;;;;;;;32.30;16.20;;;;;;;-128.00;-1.00;-1.00;18501;294;7506136;-32
2023/04/17 08:48:19;;;;;;;29.10;18.40;;;;;;;-128.00;-1.00;-1.00;18491;295;7506448;-34
2023/04/17 08:50:47;;;;;;;31.90;16.50;;;;;;;-128.00;-1.00;-1.00;18484;298;7506125;-35
2023/04/17 08:53:13;;;;;;;25.80;12.90;;;;;;;-128.00;-1.00;-1.00;18482;305;7504996;-34
2023/04/17 08:55:39;;;;;;;28.40;14.20;;;;;;;-128.00;-1.00;-1.00;18490;293;7505747;-31
2023/04/17 08:58:05;;;;;;;33.80;16.70;;;;;;;-128.00;-1.00;-1.00;18480;293;7505698;-31
2023/04/17 09:00:38;;;;;;;32.50;17.80;;;;;;;-128.00;-1.00;-1.00;18473;346;7504756;-34
2023/04/17 09:03:07;;;;;;;33.50;16.00;;;;;;;-128.00;-1.00;-1.00;18492;293;7505183;-31
2023/04/17 09:05:35;;;;;;;29.40;15.00;;;;;;;-128.00;-1.00;-1.00;18527;290;7504462;-31
2023/04/17 09:08:19;;;;;;;32.50;14.50;;;;;;;-128.00;-1.00;-1.00;18488;295;7505755;-34
2023/04/17 09:10:46;;;;;;;26.20;15.90;;;;;;;-128.00;-1.00;-1.00;18507;294;7505060;-31
2023/04/17 09:13:14;;;;;;;37.90;18.70;;;;;;;-128.00;-1.00;-1.00;18499;294;7504944;-34
2023/04/17 09:15:40;;;;;;;28.50;15.20;;;;;;;-128.00;-1.00;-1.00;18532;293;7504962;-30
2023/04/17 09:18:26;;;;;;;35.90;16.60;;;;;;;-128.00;-1.00;-1.00;18492;293;7504733;-32
2023/04/17 09:20:52;;;;;;;25.50;13.40;;;;;;;-128.00;-1.00;-1.00;18484;295;7504725;-31
2023/04/17 09:23:18;;;;;;;24.00;14.30;;;;;;;-128.00;-1.00;-1.00;18513;294;7505721;-31
2023/04/17 09:25:45;;;;;;;28.00;14.50;;;;;;;-128.00;-1.00;-1.00;18516;294;7505998;-34
2023/04/17 09:28:12;;;;;;;29.00;15.90;;;;;;;-128.00;-1.00;-1.00;18475;338;7504108;-31
2023/04/17 09:30:39;;;;;;;40.70;19.60;;;;;;;-128.00;-1.00;-1.00;18513;338;7504732;-30
2023/04/17 09:33:06;;;;;;;37.60;19.00;;;;;;;-128.00;-1.00;-1.00;18536;346;7504614;-31
2023/04/17 09:35:32;;;;;;;39.80;19.20;;;;;;;-128.00;-1.00;-1.00;18473;298;7506238;-34
2023/04/17 09:37:58;;;;;;;29.10;16.10;;;;;;;-128.00;-1.00;-1.00;18512;293;7504863;-31
2023/04/17 09:40:24;;;;;;;26.10;16.90;;;;;;;-128.00;-1.00;-1.00;18477;293;7506176;-32
2023/04/17 09:43:00;;;;;;;28.00;16.00;;;;;;;-128.00;-1.00;-1.00;18498;302;7505974;-35
2023/04/17 09:45:32;;;;;;;29.90;15.00;;;;;;;-128.00;-1.00;-1.00;18498;294;7505200;-35
2023/04/17 09:47:59;;;;;;;27.40;15.40;;;;;;;-128.00;-1.00;-1.00;18512;338;7504243;-31
2023/04/17 09:50:25;;;;;;;26.00;13.90;;;;;;;-128.00;-1.00;-1.00;18474;294;7505032;-35
2023/04/17 09:52:52;;;;;;;37.70;19.90;;;;;;;-128.00;-1.00;-1.00;18496;294;7506125;-32
2023/04/17 09:55:20;;;;;;;38.30;17.40;;;;;;;-128.00;-1.00;-1.00;18493;301;7504529;-31
2023/04/17 09:57:48;;;;;;;34.30;19.20;;;;;;;-128.00;-1.00;-1.00;18484;294;7505048;-32
2023/04/17 10:00:14;;;;;;;33.50;19.30;;;;;;;-128.00;-1.00;-1.00;18475;346;7504412;-31
2023/04/17 10:02:41;;;;;;;37.40;21.30;;;;;;;-128.00;-1.00;-1.00;18472;294;7506297;-35
2023/04/17 10:05:09;;;;;;;38.10;17.90;;;;;;;-128.00;-1.00;-1.00;18453;300;7506060;-35
2023/04/17 10:07:35;;;;;;;38.20;19.50;;;;;;;-128.00;-1.00;-1.00;18492;294;7505944;-35
2023/04/17 10:10:08;;;;;;;35.20;19.80;;;;;;;-128.00;-1.00;-1.00;18475;338;7504572;-34
2023/04/17 10:12:34;;;;;;;37.80;21.10;;;;;;;-128.00;-1.00;-1.00;18517;294;7505048;-31
2023/04/17 10:15:00;;;;;;;37.90;18.90;;;;;;;-128.00;-1.00;-1.00;18482;343;7505011;-34
2023/04/17 10:17:30;;;;;;;34.00;18.60;;;;;;;-128.00;-1.00;-1.00;18475;346;7505051;-31
2023/04/17 10:20:28;;;;;;;29.60;18.30;;;;;;;-128.00;-1.00;-1.00;18457;338;7504989;-32
2023/04/17 10:22:55;;;;;;;34.80;18.00;;;;;;;-128.00;-1.00;-1.00;18466;295;7505825;-31
2023/04/17 10:25:25;;;;;;;36.30;20.40;;;;;;;-128.00;-1.00;-1.00;18464;294;7504611;-34
2023/04/17 10:28:00;;;;;;;34.90;19.80;;;;;;;-128.00;-1.00;-1.00;18505;322;7504535;-30
2023/04/17 10:30:50;;;;;;;37.10;19.40;;;;;;;-128.00;-1.00;-1.00;18503;317;7504730;-34
2023/04/17 10:33:21;;;;;;;33.20;17.40;;;;;;;-128.00;-1.00;-1.00;18520;334;7504471;-31
2023/04/17 10:35:47;;;;;;;26.70;16.20;;;;;;;-128.00;-1.00;-1.00;18473;294;7504443;-30
2023/04/17 10:38:14;;;;;;;48.30;19.30;;;;;;;-128.00;-1.00;-1.00;18467;294;7504297;-34
2023/04/17 10:40:42;;;;;;;32.00;18.20;;;;;;;-128.00;-1.00;-1.00;18479;293;7504413;-34
2023/04/17 10:43:21;;;;;;;29.30;16.90;;;;;;;-128.00;-1.00;-1.00;18482;346;7504805;-30
2023/04/17 10:46:08;;;;;;;42.60;21.80;;;;;;;-128.00;-1.00;-1.00;18498;293;7504674;-31
2023/04/17 10:48:41;;;;;;;30.00;19.30;;;;;;;-128.00;-1.00;-1.00;18515;346;7504341;-35
2023/04/17 10:51:38;;;;;;;41.40;19.60;;;;;;;-128.00;-1.00;-1.00;18509;346;7506002;-31
2023/04/17 10:54:05;;;;;;;32.60;17.40;;;;;;;-128.00;-1.00;-1.00;18524;294;7504212;-31
2023/04/17 10:56:38;;;;;;;38.50;19.70;;;;;;;-128.00;-1.00;-1.00;18461;298;7504437;-31
2023/04/17 10:59:05;;;;;;;36.40;19.20;;;;;;;-128.00;-1.00;-1.00;18461;334;7504769;-35
2023/04/17 11:01:47;;;;;;;33.20;18.60;;;;;;;-128.00;-1.00;-1.00;18515;294;7504509;-31
2023/04/17 11:46:56;;;;;;;55.80;21.80;;;;;;;-100.20;19.20;19968.87;98325;294;1544437;-34
2023/04/17 11:49:28;;;;;;;24.80;17.10;;;;;;;-128.00;-1.00;-1.00;60470;295;7504331;-32
2023/04/17 11:52:00;;;;;;;24.10;16.30;;;;;;;-128.00;-1.00;-1.00;18498;293;7505019;-33
2023/04/17 11:54:27;;;;;;;35.30;22.90;;;;;;;-128.00;-1.00;-1.00;18477;295;7504578;-36
2023/04/17 11:56:58;;;;;;;62.50;33.30;;;;;;;-128.00;-1.00;-1.00;18481;293;7504953;-32
2023/04/17 11:59:36;;;;;;;28.60;18.80;;;;;;;-128.00;-1.00;-1.00;18500;286;7504841;-32
2023/04/17 12:02:06;;;;;;;24.90;18.10;;;;;;;-128.00;-1.00;-1.00;18491;294;7504260;-32
2023/04/17 12:04:33;;;;;;;20.50;16.70;;;;;;;-128.00;-1.00;-1.00;18515;293;7505031;-36
2023/04/17 12:07:00;;;;;;;30.30;15.10;;;;;;;-128.00;-1.00;-1.00;18489;293;7505835;-32
2023/04/17 12:09:30;;;;;;;19.40;14.60;;;;;;;-128.00;-1.00;-1.00;18516;293;7506080;-32
2023/04/17 12:12:03;;;;;;;26.10;15.30;;;;;;;-128.00;-1.00;-1.00;18491;293;7504939;-31
2023/04/17 12:14:29;;;;;;;20.30;15.60;;;;;;;-128.00;-1.00;-1.00;18462;286;7505364;-31
2023/04/17 12:16:54;;;;;;;24.30;16.70;;;;;;;-128.00;-1.00;-1.00;18504;334;7505454;-35
2023/04/17 12:19:20;;;;;;;33.60;19.00;;;;;;;-128.00;-1.00;-1.00;18516;293;7504900;-31
2023/04/17 12:21:51;;;;;;;31.10;20.30;;;;;;;-128.00;-1.00;-1.00;18466;317;7506280;-34
2023/04/17 12:24:18;;;;;;;27.20;15.20;;;;;;;-128.00;-1.00;-1.00;18482;293;7505984;-31
2023/04/17 12:26:45;;;;;;;23.60;15.60;;;;;;;-128.00;-1.00;-1.00;18456;295;7504717;-32
2023/04/17 12:29:13;;;;;;;20.20;15.70;;;;;;;-128.00;-1.00;-1.00;18470;293;7504535;-32
2023/04/17 12:31:39;;;;;;;18.70;15.10;;;;;;;-128.00;-1.00;-1.00;18500;334;7505792;-32
2023/04/17 12:34:05;;;;;;;28.10;17.80;;;;;;;-128.00;-1.00;-1.00;18916;293;7505591;-32
2023/04/17 12:36:31;;;;;;;22.40;17.50;;;;;;;-128.00;-1.00;-1.00;18879;346;7504312;-34
2023/04/17 12:38:57;;;;;;;16.30;14.30;;;;;;;-128.00;-1.00;-1.00;18871;295;7504938;-34
2023/04/17 12:41:26;;;;;;;17.50;14.70;;;;;;;-128.00;-1.00;-1.00;18855;293;7504668;-32